Time;durP1;ratioP1;P1;durP2;ratioP2;P2;SDS_P1;SDS_P2;PMS_P1;PMS_P2;Temp;Humidity;BMP_temperature;BMP_pressure;BME280_temperature;BME280_humidity;BME280_pressure;Samples;Min_cycle;Max_cycle;Signal;HPM_P1;HPM_P2
2021/08/13 00:01:07;;;;;;;9.27;5.57;;;19.90;67.40;;;;;;5054794;28;20029;-77
2021/08/13 00:03:32;;;;;;;7.60;6.20;;;19.90;67.50;;;;;;5054069;28;20021;-78
2021/08/13 00:05:58;;;;;;;8.80;6.13;;;19.80;67.60;;;;;;5054867;28;20109;-78
2021/08/13 00:08:24;;;;;;;9.32;5.88;;;19.80;67.80;;;;;;5054499;28;20029;-79
2021/08/13 00:10:50;;;;;;;9.05;5.25;;;19.70;67.90;;;;;;5054658;28;20032;-78
2021/08/13 00:13:16;;;;;;;11.77;5.70;;;19.80;68.20;;;;;;5054557;28;20025;-78
2021/08/13 00:15:42;;;;;;;11.15;6.15;;;19.80;68.30;;;;;;5054456;28;20029;-78
2021/08/13 00:18:08;;;;;;;8.82;5.28;;;19.80;68.30;;;;;;5054397;28;20112;-78
2021/08/13 00:20:35;;;;;;;7.15;5.47;;;19.80;68.20;;;;;;5054194;28;20048;-77
2021/08/13 00:23:01;;;;;;;18.42;11.82;;;19.80;68.10;;;;;;5053102;28;20542;-78
2021/08/13 00:25:27;;;;;;;8.32;6.63;;;19.70;68.00;;;;;;5054235;28;20053;-78
2021/08/13 00:27:53;;;;;;;10.98;6.70;;;19.70;68.00;;;;;;5052734;28;20133;-78
2021/08/13 00:30:18;;;;;;;10.05;6.30;;;19.80;67.90;;;;;;5054278;28;20114;-77
2021/08/13 00:32:44;;;;;;;9.65;7.00;;;19.80;67.70;;;;;;5053917;28;20043;-78
2021/08/13 00:35:10;;;;;;;10.70;6.30;;;19.80;67.70;;;;;;5053852;28;20025;-77
2021/08/13 00:37:37;;;;;;;9.32;6.20;;;19.80;67.70;;;;;;5053567;28;20025;-78
2021/08/13 00:40:04;;;;;;;8.02;6.47;;;19.80;67.70;;;;;;5054005;28;20445;-77
2021/08/13 00:42:30;;;;;;;7.18;5.78;;;19.70;67.70;;;;;;5053823;28;20025;-76
2021/08/13 00:44:56;;;;;;;12.40;6.43;;;19.70;67.70;;;;;;5053930;28;20017;-76
2021/08/13 00:47:21;;;;;;;9.85;6.15;;;19.70;67.90;;;;;;5053938;28;20412;-77
2021/08/13 00:49:47;;;;;;;11.27;6.32;;;19.70;67.90;;;;;;5053505;28;20032;-77
2021/08/13 00:52:15;;;;;;;10.60;6.07;;;19.70;67.90;;;;;;5053636;28;20035;-77
2021/08/13 00:54:41;;;;;;;11.60;6.40;;;19.60;68.00;;;;;;5053674;28;20468;-76
2021/08/13 00:57:07;;;;;;;9.55;6.07;;;19.60;68.00;;;;;;5053590;28;20053;-76
2021/08/13 00:59:33;;;;;;;12.25;6.55;;;19.60;68.10;;;;;;5053700;28;20040;-75
2021/08/13 01:01:59;;;;;;;10.45;5.80;;;19.60;68.20;;;;;;5053842;28;20383;-76
2021/08/13 01:04:24;;;;;;;9.38;6.40;;;19.50;68.40;;;;;;5053678;28;20021;-75
2021/08/13 01:06:50;;;;;;;10.50;6.10;;;19.50;68.40;;;;;;5053747;28;20430;-76
2021/08/13 01:09:16;;;;;;;9.30;5.68;;;19.50;68.60;;;;;;5053503;28;20055;-75
2021/08/13 01:11:50;;;;;;;9.23;5.60;;;19.40;68.60;;;;;;5052338;28;20407;-76
2021/08/13 01:14:40;;;;;;;10.15;5.60;;;19.40;68.70;;;;;;5052496;28;20032;-77
2021/08/13 01:17:09;;;;;;;11.80;6.18;;;19.40;69.00;;;;;;5053139;28;20056;-78
2021/08/13 01:20:02;;;;;;;7.03;5.90;;;19.40;69.10;;;;;;5051769;28;20108;-77
2021/08/13 01:22:35;;;;;;;7.45;5.35;;;19.40;69.00;;;;;;5052873;28;20028;-77
2021/08/13 01:25:03;;;;;;;7.72;5.45;;;19.30;68.90;;;;;;5052756;28;20025;-78
2021/08/13 01:27:38;;;;;;;7.60;5.93;;;19.30;69.10;;;;;;5052902;28;20491;-77
2021/08/13 01:30:06;;;;;;;10.02;5.97;;;19.30;69.30;;;;;;5052763;28;20167;-78
2021/08/13 01:32:48;;;;;;;11.07;5.57;;;19.20;69.30;;;;;;5051372;28;20387;-78
2021/08/13 01:35:24;;;;;;;7.10;5.57;;;19.20;69.50;;;;;;5052745;28;20017;-77
2021/08/13 01:38:08;;;;;;;12.50;7.97;;;19.30;69.70;;;;;;5052775;28;20089;-76
2021/08/13 01:40:36;;;;;;;11.43;8.10;;;19.20;69.70;;;;;;5052961;28;20550;-77
2021/08/13 01:43:03;;;;;;;12.73;8.23;;;19.20;69.70;;;;;;5052887;28;20086;-77
2021/08/13 01:45:33;;;;;;;10.05;7.80;;;19.10;69.80;;;;;;5052785;28;20384;-77
2021/08/13 01:48:00;;;;;;;10.10;6.65;;;19.10;70.00;;;;;;5052528;28;20357;-77
2021/08/13 01:50:26;;;;;;;10.07;7.40;;;19.10;70.10;;;;;;5052436;28;20421;-77
2021/08/13 01:52:54;;;;;;;9.15;6.63;;;19.00;70.20;;;;;;5052390;28;20021;-76
2021/08/13 01:55:21;;;;;;;9.13;6.22;;;19.00;70.40;;;;;;5052026;28;20036;-75
2021/08/13 01:57:47;;;;;;;11.07;6.20;;;19.00;70.60;;;;;;5052274;28;20033;-76
2021/08/13 02:00:16;;;;;;;11.27;6.90;;;19.00;70.80;;;;;;5052214;28;20379;-78
2021/08/13 02:02:43;;;;;;;13.45;6.20;;;18.90;70.80;;;;;;5052235;28;20017;-76
2021/08/13 02:05:09;;;;;;;9.50;5.90;;;18.90;70.90;;;;;;5052324;28;20032;-77
2021/08/13 02:07:40;;;;;;;10.00;5.90;;;18.90;71.00;;;;;;5052065;28;20021;-77
2021/08/13 02:10:07;;;;;;;9.52;5.63;;;18.90;71.20;;;;;;5052094;28;20021;-76
2021/08/13 02:12:34;;;;;;;12.70;6.50;;;18.90;71.20;;;;;;5052450;28;20017;-76
2021/08/13 02:15:00;;;;;;;21.52;17.05;;;18.90;71.20;;;;;;5052734;28;20052;-76
2021/08/13 02:17:29;;;;;;;16.35;11.10;;;18.90;71.30;;;;;;5052602;28;20498;-75
2021/08/13 02:20:24;;;;;;;15.95;9.88;;;18.90;71.40;;;;;;5053018;28;20098;-76
2021/08/13 02:22:50;;;;;;;11.13;7.10;;;18.80;71.30;;;;;;5048711;28;20040;-75
2021/08/13 02:25:16;;;;;;;10.50;6.18;;;18.80;71.40;;;;;;5054022;28;20092;-75
2021/08/13 02:27:42;;;;;;;11.75;6.55;;;18.80;71.50;;;;;;5057081;28;20135;-77
2021/08/13 02:30:08;;;;;;;9.95;5.75;;;18.80;71.60;;;;;;5056626;28;20037;-76
2021/08/13 02:32:34;;;;;;;10.13;5.75;;;18.80;71.60;;;;;;5056472;28;20071;-77
2021/08/13 02:35:02;;;;;;;12.90;6.22;;;18.70;71.50;;;;;;5056630;28;20472;-76
2021/08/13 02:37:47;;;;;;;9.10;6.30;;;18.70;71.50;;;;;;5055930;28;20025;-77
2021/08/13 02:40:25;;;;;;;8.10;5.78;;;18.80;71.70;;;;;;5056533;28;20104;-77
2021/08/13 02:43:25;;;;;;;10.00;6.35;;;18.70;72.30;;;;;;5056590;28;20024;-77
2021/08/13 02:45:54;;;;;;;12.20;6.50;;;18.70;71.90;;;;;;5056570;28;20025;-76
2021/08/13 02:48:20;;;;;;;12.30;6.03;;;18.70;71.80;;;;;;5056513;28;20476;-76
2021/08/13 02:50:48;;;;;;;9.68;6.97;;;18.70;71.90;;;;;;5055813;28;20028;-76
2021/08/13 02:53:17;;;;;;;9.30;6.43;;;18.80;72.00;;;;;;5056536;28;20056;-76
2021/08/13 02:55:50;;;;;;;8.73;5.97;;;19.00;71.80;;;;;;5055320;28;20040;-78
2021/08/13 02:58:19;;;;;;;14.90;6.45;;;19.30;71.40;;;;;;5057222;28;20052;-77
2021/08/13 03:00:46;;;;;;;9.82;6.43;;;19.70;70.90;;;;;;5057046;28;20098;-78
2021/08/13 03:03:15;;;;;;;13.20;6.38;;;20.10;70.00;;;;;;5058044;28;20642;-77
2021/08/13 03:05:44;;;;;;;9.30;6.07;;;20.60;69.00;;;;;;5058309;28;20123;-78
2021/08/13 03:08:10;;;;;;;7.93;6.13;;;21.10;67.80;;;;;;5057364;28;20031;-77
2021/08/13 03:10:38;;;;;;;9.40;6.30;;;21.70;66.60;;;;;;5056330;28;20108;-77
2021/08/13 03:13:06;;;;;;;9.20;5.80;;;22.20;65.10;;;;;;5056052;28;20025;-78
2021/08/13 03:15:41;;;;;;;13.80;5.97;;;22.80;63.70;;;;;;5055822;28;20094;-77
2021/08/13 03:18:07;;;;;;;8.43;5.97;;;23.40;62.10;;;;;;5055678;28;20025;-78
2021/08/13 03:20:33;;;;;;;8.18;5.95;;;24.00;61.10;;;;;;5055072;28;20040;-78
2021/08/13 03:22:59;;;;;;;18.35;14.50;;;24.60;59.70;;;;;;5056314;28;20025;-77
2021/08/13 03:25:25;;;;;;;10.57;6.93;;;25.20;58.40;;;;;;5055737;28;20508;-77
2021/08/13 03:27:51;;;;;;;10.43;7.10;;;25.80;57.20;;;;;;5055457;28;20021;-77
2021/08/13 03:30:17;;;;;;;10.07;7.20;;;26.40;55.90;;;;;;5055411;28;20694;-77
2021/08/13 03:32:44;;;;;;;14.50;7.78;;;27.10;54.80;;;;;;5055652;28;20368;-78
2021/08/13 03:35:10;;;;;;;15.20;8.05;;;27.70;53.70;;;;;;5055156;28;20025;-78
2021/08/13 03:37:36;;;;;;;12.18;6.60;;;28.30;52.60;;;;;;5053628;28;20032;-78
2021/08/13 03:40:03;;;;;;;7.47;5.63;;;29.00;51.50;;;;;;5053561;28;20028;-78
2021/08/13 03:42:29;;;;;;;17.95;6.80;;;29.60;50.30;;;;;;5053697;28;20021;-77
2021/08/13 03:44:55;;;;;;;9.82;5.50;;;30.20;49.40;;;;;;5054706;28;20025;-77
2021/08/13 03:47:20;;;;;;;12.55;6.53;;;30.70;48.40;;;;;;5054975;28;20025;-77
2021/08/13 03:49:46;;;;;;;9.50;5.85;;;31.30;47.50;;;;;;5055014;28;20434;-75
2021/08/13 03:52:12;;;;;;;9.38;5.50;;;31.90;46.70;;;;;;5054113;28;20029;-73
2021/08/13 03:54:37;;;;;;;9.13;6.15;;;32.50;45.90;;;;;;5054006;28;20068;-73
2021/08/13 03:57:04;;;;;;;7.63;5.82;;;33.00;45.10;;;;;;5052722;28;20623;-74
2021/08/13 03:59:29;;;;;;;6.88;5.10;;;33.40;44.40;;;;;;5053479;28;20033;-78
2021/08/13 04:01:55;;;;;;;10.50;6.32;;;33.90;43.90;;;;;;5055016;28;20037;-78
2021/08/13 04:04:21;;;;;;;8.63;5.20;;;34.40;43.20;;;;;;5054941;28;20024;-78
2021/08/13 04:06:46;;;;;;;8.57;5.60;;;34.90;42.60;;;;;;5054754;28;20349;-77
2021/08/13 04:09:12;;;;;;;18.70;13.52;;;35.40;42.00;;;;;;5054724;28;20021;-78
2021/08/13 04:11:38;;;;;;;12.38;7.32;;;35.80;41.40;;;;;;5054302;28;20049;-78
2021/08/13 04:14:05;;;;;;;10.18;5.90;;;36.20;40.80;;;;;;5054425;28;20061;-78
2021/08/13 04:16:31;;;;;;;8.95;5.40;;;36.60;40.30;;;;;;5054227;28;20383;-77
2021/08/13 04:18:56;;;;;;;6.35;4.90;;;37.10;40.00;;;;;;5054301;28;20032;-79
2021/08/13 04:21:22;;;;;;;10.73;6.35;;;37.40;39.40;;;;;;5054331;28;20788;-78
2021/08/13 04:23:48;;;;;;;7.38;5.10;;;37.80;39.00;;;;;;5054106;28;20025;-79
2021/08/13 04:26:13;;;;;;;11.48;5.32;;;38.20;38.50;;;;;;5054021;28;20387;-79
2021/08/13 04:28:39;;;;;;;8.18;5.22;;;38.60;38.10;;;;;;5054225;28;20071;-79
2021/08/13 04:31:06;;;;;;;8.18;4.82;;;39.00;37.80;;;;;;5054019;28;20108;-79
2021/08/13 04:33:33;;;;;;;5.90;5.07;;;39.30;37.30;;;;;;5053793;28;20025;-78
2021/08/13 04:35:58;;;;;;;11.00;5.47;;;39.70;36.90;;;;;;5053711;28;20040;-77
2021/08/13 04:38:25;;;;;;;7.32;4.78;;;40.10;36.60;;;;;;5053353;28;20360;-79
2021/08/13 04:40:51;;;;;;;9.30;4.80;;;40.30;36.10;;;;;;5052649;28;20037;-78
2021/08/13 04:43:17;;;;;;;9.32;5.20;;;40.50;35.90;;;;;;5053385;28;20029;-77
2021/08/13 04:45:42;;;;;;;7.72;5.45;;;40.70;35.70;;;;;;5053511;28;20418;-77
2021/08/13 04:48:08;;;;;;;6.78;4.78;;;40.90;35.50;;;;;;5053123;28;20036;-78
2021/08/13 04:50:34;;;;;;;12.68;6.75;;;41.10;35.20;;;;;;5053064;28;20043;-77
2021/08/13 04:53:00;;;;;;;7.00;5.40;;;41.30;35.00;;;;;;5053011;28;20131;-78
2021/08/13 04:55:26;;;;;;;10.38;5.65;;;41.60;34.80;;;;;;5052652;28;20033;-77
2021/08/13 04:57:52;;;;;;;9.90;5.22;;;41.80;34.50;;;;;;5053174;28;20033;-77
2021/08/13 05:00:19;;;;;;;9.25;5.25;;;42.10;34.40;;;;;;5052896;28;20100;-77
2021/08/13 05:02:46;;;;;;;5.93;5.03;;;42.30;34.20;;;;;;5052631;28;20132;-78
2021/08/13 05:05:12;;;;;;;11.18;5.25;;;42.50;34.00;;;;;;5052251;28;20040;-78
2021/08/13 05:07:38;;;;;;;10.45;4.80;;;42.80;33.70;;;;;;5052542;28;20032;-78
2021/08/13 05:10:22;;;;;;;11.77;4.72;;;42.90;33.50;;;;;;5052581;28;20024;-78
2021/08/13 05:12:48;;;;;;;11.32;5.13;;;43.20;33.20;;;;;;5052470;28;20028;-78
2021/08/13 05:15:14;;;;;;;10.00;5.47;;;43.40;33.20;;;;;;5052319;28;20029;-77
2021/08/13 05:17:40;;;;;;;12.35;4.88;;;43.60;33.00;;;;;;5052277;28;20021;-76
2021/08/13 05:20:07;;;;;;;7.43;5.18;;;43.80;32.80;;;;;;5052161;28;20021;-77
2021/08/13 05:22:34;;;;;;;6.00;4.45;;;43.90;32.60;;;;;;5050680;28;20357;-78
2021/08/13 05:25:04;;;;;;;10.43;5.03;;;44.10;32.50;;;;;;5048926;28;20013;-77
2021/08/13 05:27:29;;;;;;;12.50;5.38;;;44.20;32.40;;;;;;5050267;28;20047;-76
2021/08/13 05:29:55;;;;;;;9.77;5.10;;;44.30;32.40;;;;;;5049921;28;20337;-77
2021/08/13 05:32:22;;;;;;;10.25;5.30;;;44.50;32.40;;;;;;5051069;28;20016;-77
2021/08/13 05:34:48;;;;;;;10.98;5.70;;;44.60;32.20;;;;;;5051434;28;20436;-77
2021/08/13 05:37:14;;;;;;;8.30;5.07;;;44.70;32.10;;;;;;5050904;28;20123;-77
2021/08/13 05:39:40;;;;;;;14.23;5.63;;;44.80;32.10;;;;;;5051372;28;20096;-77
2021/08/13 05:42:05;;;;;;;8.68;5.38;;;44.90;32.10;;;;;;5051261;28;20025;-75
2021/08/13 05:44:31;;;;;;;6.88;4.95;;;45.10;32.10;;;;;;5051448;28;20517;-77
2021/08/13 05:46:57;;;;;;;12.55;5.80;;;45.30;32.00;;;;;;5050891;28;20092;-76
2021/08/13 05:49:23;;;;;;;11.48;6.40;;;45.50;31.80;;;;;;5050731;28;20096;-77
2021/08/13 05:51:49;;;;;;;8.50;5.10;;;45.70;31.80;;;;;;5051110;28;20017;-77
2021/08/13 05:54:14;;;;;;;11.18;5.22;;;45.90;31.80;;;;;;5050888;28;20352;-76
2021/08/13 05:56:40;;;;;;;7.80;5.30;;;46.10;31.70;;;;;;5050906;28;20041;-76
2021/08/13 05:59:06;;;;;;;7.43;5.60;;;46.20;31.50;;;;;;5051136;28;20044;-76
2021/08/13 06:01:32;;;;;;;6.57;4.78;;;46.30;31.40;;;;;;5050174;28;20013;-72
2021/08/13 06:03:57;;;;;;;13.07;5.70;;;46.40;31.40;;;;;;5050030;28;20021;-72
2021/08/13 06:06:23;;;;;;;11.25;5.65;;;46.50;31.30;;;;;;5050467;28;20062;-73
2021/08/13 06:08:49;;;;;;;10.07;5.43;;;46.70;31.20;;;;;;5050257;28;20021;-72
2021/08/13 06:11:14;;;;;;;8.10;5.22;;;46.70;31.00;;;;;;5050141;28;20037;-73
2021/08/13 06:13:40;;;;;;;9.88;5.30;;;46.70;30.90;;;;;;5050452;28;20027;-73
2021/08/13 06:16:06;;;;;;;10.00;5.30;;;46.80;31.00;;;;;;5051274;28;20024;-72
2021/08/13 06:18:31;;;;;;;7.22;5.50;;;46.70;30.90;;;;;;5051185;28;20431;-73
2021/08/13 06:20:57;;;;;;;9.50;5.45;;;46.60;30.90;;;;;;5050972;28;20376;-73
2021/08/13 06:23:23;;;;;;;10.40;6.22;;;46.60;30.90;;;;;;5051191;28;20029;-73
2021/08/13 06:25:49;;;;;;;8.93;5.05;;;46.50;30.90;;;;;;5051082;28;20033;-73
2021/08/13 06:28:14;;;;;;;15.23;5.78;;;46.50;31.10;;;;;;5051172;28;20445;-73
2021/08/13 06:30:40;;;;;;;9.80;4.63;;;46.50;31.00;;;;;;5050587;28;20096;-74
2021/08/13 06:33:06;;;;;;;14.07;5.50;;;46.50;31.00;;;;;;5050974;28;20028;-74
2021/08/13 06:35:32;;;;;;;8.10;5.05;;;46.50;31.00;;;;;;5051082;28;20025;-72
2021/08/13 06:37:58;;;;;;;10.48;7.22;;;46.50;31.10;;;;;;5050922;28;20083;-74
2021/08/13 06:40:24;;;;;;;9.68;5.60;;;46.50;31.00;;;;;;5050757;28;20021;-74
2021/08/13 06:42:50;;;;;;;9.85;5.20;;;46.40;31.10;;;;;;5050601;28;20040;-74
2021/08/13 06:45:19;;;;;;;12.48;5.47;;;46.30;31.10;;;;;;5050802;28;20501;-74
2021/08/13 06:47:45;;;;;;;8.27;4.97;;;46.20;31.20;;;;;;5050807;28;20076;-73
2021/08/13 06:50:13;;;;;;;6.80;5.03;;;46.10;31.30;;;;;;5051034;28;20096;-75
2021/08/13 06:52:39;;;;;;;6.85;5.00;;;45.90;31.40;;;;;;5049420;28;20425;-73
2021/08/13 06:55:07;;;;;;;8.05;5.15;;;45.80;31.50;;;;;;5050758;28;20155;-73
2021/08/13 06:57:33;;;;;;;6.72;5.07;;;45.70;31.50;;;;;;5050931;28;20493;-75
2021/08/13 07:00:06;;;;;;;7.10;4.75;;;45.50;31.60;;;;;;5050876;28;20017;-73
2021/08/13 07:02:32;;;;;;;8.85;5.35;;;45.50;31.70;;;;;;5050917;28;20040;-74
2021/08/13 07:04:58;;;;;;;11.00;4.70;;;45.30;31.70;;;;;;5050594;28;20025;-75
2021/08/13 07:07:23;;;;;;;8.27;4.13;;;45.10;31.80;;;;;;5050741;28;20025;-74
2021/08/13 07:09:49;;;;;;;11.52;4.47;;;45.10;32.00;;;;;;5050589;28;20379;-74
2021/08/13 07:12:15;;;;;;;8.18;4.80;;;45.00;32.00;;;;;;5053103;28;20029;-73
2021/08/13 07:14:42;;;;;;;5.30;4.80;;;44.90;32.10;;;;;;5054219;28;20035;-73
2021/08/13 07:17:09;;;;;;;12.85;5.05;;;44.80;32.10;;;;;;5054085;28;20024;-74
2021/08/13 07:19:35;;;;;;;8.55;4.47;;;44.70;32.10;;;;;;5054189;28;20049;-73
2021/08/13 07:22:01;;;;;;;6.75;4.60;;;44.60;32.20;;;;;;5054154;28;20048;-72
2021/08/13 07:24:27;;;;;;;7.05;4.75;;;44.50;32.30;;;;;;5053224;28;20048;-73
2021/08/13 07:26:52;;;;;;;11.02;6.10;;;44.40;32.60;;;;;;5054183;28;20813;-73
2021/08/13 07:29:18;;;;;;;10.27;5.03;;;44.30;32.70;;;;;;5053791;28;20021;-72
2021/08/13 07:31:44;;;;;;;19.08;10.82;;;44.10;32.80;;;;;;5054127;28;20033;-73
2021/08/13 07:34:10;;;;;;;11.45;5.50;;;43.90;32.70;;;;;;5053988;28;20036;-74
2021/08/13 07:36:35;;;;;;;7.55;4.97;;;43.80;33.00;;;;;;5054059;28;20464;-73
2021/08/13 07:39:01;;;;;;;8.40;4.80;;;43.50;33.20;;;;;;5053869;28;20033;-73
2021/08/13 07:41:27;;;;;;;9.68;5.28;;;43.30;33.40;;;;;;5054115;28;20021;-74
2021/08/13 07:43:53;;;;;;;6.90;5.43;;;43.10;33.60;;;;;;5054007;28;20029;-74
2021/08/13 07:46:19;;;;;;;10.05;4.70;;;42.90;33.50;;;;;;5052706;28;20455;-74
2021/08/13 07:48:44;;;;;;;5.57;4.55;;;42.80;33.50;;;;;;5053924;28;20036;-73
2021/08/13 07:51:10;;;;;;;9.05;5.85;;;42.50;33.50;;;;;;5053506;28;20059;-74
2021/08/13 07:53:36;;;;;;;6.88;5.90;;;42.20;33.60;;;;;;5053579;28;20029;-74
2021/08/13 07:56:02;;;;;;;7.70;5.43;;;41.60;33.90;;;;;;5052152;28;20119;-74
2021/08/13 07:58:28;;;;;;;11.07;4.97;;;41.30;34.50;;;;;;5053565;28;20065;-74
2021/08/13 08:00:53;;;;;;;7.97;4.15;;;40.90;34.70;;;;;;5053593;28;20060;-74
2021/08/13 08:03:19;;;;;;;9.45;4.53;;;40.60;34.80;;;;;;5053654;28;20032;-73
2021/08/13 08:05:45;;;;;;;10.73;4.47;;;40.30;34.90;;;;;;5053375;28;20122;-74
2021/08/13 08:08:11;;;;;;;7.82;4.50;;;40.10;35.30;;;;;;5053714;28;20847;-73
2021/08/13 08:10:37;;;;;;;9.90;4.97;;;39.80;35.20;;;;;;5053447;28;20494;-72
2021/08/13 08:13:03;;;;;;;4.78;3.28;;;39.40;35.20;;;;;;5053262;28;20044;-72
2021/08/13 08:15:30;;;;;;;8.80;4.03;;;39.10;35.10;;;;;;5053420;28;20382;-72
2021/08/13 08:17:55;;;;;;;17.08;5.18;;;38.80;35.40;;;;;;5052880;28;20376;-74
2021/08/13 08:20:21;;;;;;;8.88;4.40;;;38.50;35.60;;;;;;5052822;28;20028;-73
2021/08/13 08:22:47;;;;;;;7.15;4.13;;;38.30;35.80;;;;;;5052376;28;20021;-73
2021/08/13 08:25:13;;;;;;;10.95;4.30;;;38.00;36.20;;;;;;5053092;28;20035;-74
2021/08/13 08:27:39;;;;;;;9.95;4.28;;;37.80;36.50;;;;;;5051820;28;20114;-74
2021/08/13 08:30:06;;;;;;;12.07;4.70;;;37.60;36.60;;;;;;5053105;28;20479;-74
2021/08/13 08:32:32;;;;;;;11.10;5.90;;;37.50;36.80;;;;;;5053094;28;20020;-74
2021/08/13 08:34:58;;;;;;;7.22;3.83;;;37.30;36.60;;;;;;5052902;28;20032;-73
2021/08/13 08:37:23;;;;;;;7.53;3.58;;;37.20;36.70;;;;;;5052580;28;20021;-74
2021/08/13 08:39:49;;;;;;;7.63;4.40;;;37.00;36.90;;;;;;5052719;28;20021;-74
2021/08/13 08:42:17;;;;;;;5.93;4.05;;;36.80;37.00;;;;;;5052796;28;20096;-74
2021/08/13 08:44:43;;;;;;;9.27;5.03;;;36.70;36.80;;;;;;5052952;28;20021;-72
2021/08/13 08:47:09;;;;;;;6.88;4.90;;;36.60;36.90;;;;;;5052709;28;20087;-72
2021/08/13 08:49:40;;;;;;;8.50;4.72;;;36.40;36.90;;;;;;5052548;28;20029;-72
2021/08/13 08:52:07;;;;;;;13.25;4.40;;;36.20;36.80;;;;;;5052694;28;20071;-71
2021/08/13 08:54:35;;;;;;;10.10;4.78;;;36.10;36.80;;;;;;5052526;28;20541;-74
2021/08/13 08:57:03;;;;;;;7.60;5.07;;;35.90;37.00;;;;;;5051958;28;20045;-72
2021/08/13 08:59:29;;;;;;;8.55;5.13;;;35.80;37.20;;;;;;5052290;28;20051;-72
2021/08/13 09:01:56;;;;;;;5.78;5.03;;;35.70;37.40;;;;;;5052312;28;20142;-74
2021/08/13 09:04:22;;;;;;;6.22;4.60;;;35.60;37.50;;;;;;5052664;28;20577;-73
2021/08/13 09:06:48;;;;;;;10.75;4.65;;;35.40;37.70;;;;;;5052515;28;20045;-75
2021/08/13 09:09:13;;;;;;;11.15;4.90;;;35.40;37.90;;;;;;5052258;28;20029;-74
2021/08/13 09:11:41;;;;;;;13.20;5.68;;;35.20;38.20;;;;;;5051658;28;20471;-73
2021/08/13 09:14:10;;;;;;;5.80;4.72;;;35.10;38.40;;;;;;5051389;28;20439;-72
2021/08/13 09:16:36;;;;;;;18.92;7.32;;;34.90;39.50;;;;;;5051326;28;20506;-74
2021/08/13 09:19:04;;;;;;;18.98;9.40;;;34.80;39.10;;;;;;5051263;28;20031;-73
2021/08/13 09:21:31;;;;;;;12.05;5.70;;;34.40;39.40;;;;;;5051785;28;20021;-73
2021/08/13 09:24:00;;;;;;;8.25;5.57;;;34.20;39.80;;;;;;5051905;28;20079;-74
2021/08/13 09:26:28;;;;;;;9.23;5.55;;;34.10;40.10;;;;;;5051643;28;20468;-74
2021/08/13 09:29:01;;;;;;;11.13;5.22;;;34.10;40.30;;;;;;5052051;28;20410;-74
2021/08/13 09:31:27;;;;;;;8.18;4.63;;;34.10;40.30;;;;;;5051591;28;20029;-73
2021/08/13 09:33:56;;;;;;;8.93;4.82;;;33.80;40.20;;;;;;5051826;28;20494;-73
2021/08/13 09:36:25;;;;;;;10.07;4.80;;;33.70;40.30;;;;;;5051203;28;20036;-74
2021/08/13 09:39:08;;;;;;;7.70;4.00;;;33.70;40.30;;;;;;5051520;28;20480;-74
2021/08/13 09:42:08;;;;;;;7.88;4.57;;;33.70;40.10;;;;;;5051696;28;20032;-74
2021/08/13 09:44:40;;;;;;;6.85;3.92;;;33.60;39.90;;;;;;5046437;28;20037;-73
2021/08/13 09:47:11;;;;;;;8.65;5.10;;;33.60;40.10;;;;;;5051247;28;20487;-74
2021/08/13 09:49:39;;;;;;;7.93;3.70;;;33.60;40.20;;;;;;5051127;28;20067;-75
2021/08/13 09:52:16;;;;;;;16.05;8.73;;;33.50;40.10;;;;;;5052316;28;20120;-79
2021/08/13 09:54:43;;;;;;;5.97;3.90;;;33.40;40.20;;;;;;5050359;28;20032;-78
2021/08/13 09:57:11;;;;;;;10.40;3.95;;;33.40;40.10;;;;;;5050128;28;20056;-79
2021/08/13 09:59:37;;;;;;;9.52;4.07;;;33.40;40.10;;;;;;5051756;28;20021;-79
2021/08/13 10:02:12;;;;;;;11.45;4.38;;;33.40;40.00;;;;;;5051311;28;20025;-79
2021/08/13 10:04:38;;;;;;;7.43;4.28;;;33.30;39.70;;;;;;5051377;28;20078;-79
2021/08/13 10:07:04;;;;;;;6.70;4.10;;;33.20;39.70;;;;;;5051742;28;20025;-79
2021/08/13 10:09:30;;;;;;;5.97;3.53;;;33.20;39.70;;;;;;5051156;28;20021;-79
2021/08/13 10:12:04;;;;;;;6.70;3.78;;;33.10;39.70;;;;;;5050967;28;20024;-78
2021/08/13 10:14:35;;;;;;;9.77;4.47;;;32.90;39.80;;;;;;5051048;28;20032;-79
2021/08/13 10:17:20;;;;;;;6.57;3.80;;;32.90;40.10;;;;;;5051328;28;20029;-79
2021/08/13 10:19:50;;;;;;;12.35;4.00;;;32.90;40.10;;;;;;5051242;28;20029;-79
2021/08/13 10:22:18;;;;;;;11.60;4.00;;;32.70;40.30;;;;;;5051480;28;20102;-79
2021/08/13 10:24:46;;;;;;;10.15;3.80;;;32.60;40.30;;;;;;5052407;28;20447;-80
2021/08/13 10:27:15;;;;;;;10.25;4.18;;;32.50;40.30;;;;;;5052020;28;20113;-80
2021/08/13 10:29:47;;;;;;;7.45;3.53;;;32.40;40.50;;;;;;5051745;28;20083;-79
2021/08/13 10:32:18;;;;;;;7.05;3.83;;;32.30;40.60;;;;;;5050612;28;20057;-79
2021/08/13 10:34:50;;;;;;;;;;;32.30;40.80;;;;;;5051861;28;20414;-78
2021/08/13 10:37:16;;;;;;;4.97;3.35;;;32.20;40.70;;;;;;5049902;28;20331;-77
2021/08/13 10:39:44;;;;;;;7.45;3.60;;;32.10;40.70;;;;;;5051164;28;20043;-78
2021/08/13 10:42:19;;;;;;;8.15;3.88;;;32.00;40.90;;;;;;5050934;28;20424;-78
2021/08/13 10:45:00;;;;;;;9.23;4.63;;;32.00;41.00;;;;;;5050784;28;20104;-78
2021/08/13 10:47:30;;;;;;;7.95;3.40;;;31.90;41.40;;;;;;5054143;28;20029;-78
2021/08/13 10:49:58;;;;;;;5.50;3.40;;;31.80;41.60;;;;;;5055001;28;20024;-77
2021/08/13 10:52:34;;;;;;;5.22;3.55;;;31.80;41.90;;;;;;5055142;28;20099;-80
2021/08/13 10:55:00;;;;;;;7.55;3.50;;;31.80;41.90;;;;;;5054831;28;20029;-76
2021/08/13 10:57:48;;;;;;;4.80;3.22;;;31.60;41.80;;;;;;5054966;28;20041;-77
2021/08/13 11:00:21;;;;;;;8.77;3.97;;;31.50;41.90;;;;;;5054908;28;20036;-78
2021/08/13 11:03:21;;;;;;;8.00;4.10;;;31.50;42.10;;;;;;5055044;28;20062;-79
2021/08/13 11:06:00;;;;;;;6.18;4.28;;;31.40;42.10;;;;;;5054687;28;20432;-78
2021/08/13 11:08:40;;;;;;;11.20;4.88;;;31.50;42.30;;;;;;5054704;28;20110;-78
2021/08/13 11:11:07;;;;;;;9.20;3.35;;;31.40;42.50;;;;;;5054593;28;20081;-79
2021/08/13 11:13:38;;;;;;;8.18;3.65;;;31.40;42.70;;;;;;5054812;28;20021;-78
2021/08/13 11:16:30;;;;;;;7.95;3.83;;;31.30;42.80;;;;;;5054725;28;20028;-78
2021/08/13 11:19:09;;;;;;;4.45;3.53;;;31.30;42.80;;;;;;5054400;28;20498;-81
2021/08/13 11:21:36;;;;;;;5.68;3.10;;;31.20;42.90;;;;;;5057637;28;20021;-80
2021/08/13 11:24:08;;;;;;;6.30;3.30;;;31.10;42.80;;;;;;5054579;28;20017;-79
2021/08/13 11:26:53;;;;;;;12.07;4.18;;;31.00;42.70;;;;;;5054721;28;20029;-80
2021/08/13 11:29:30;;;;;;;6.00;3.67;;;31.00;43.00;;;;;;5054192;28;20028;-81
2021/08/13 11:32:08;;;;;;;6.97;3.50;;;30.90;43.20;;;;;;5054629;28;20032;-80
2021/08/13 11:34:45;;;;;;;6.20;4.25;;;30.90;43.10;;;;;;5054390;28;20025;-79
2021/08/13 11:37:43;;;;;;;13.52;3.53;;;30.90;43.40;;;;;;5054706;28;20032;-80
2021/08/13 11:40:12;;;;;;;5.03;3.30;;;30.90;43.20;;;;;;5052988;28;20079;-81
2021/08/13 11:42:52;;;;;;;13.27;3.72;;;30.80;43.30;;;;;;5054485;28;20024;-80
2021/08/13 11:45:20;;;;;;;6.05;3.28;;;30.80;43.20;;;;;;5054405;28;20031;-80
2021/08/13 11:47:51;;;;;;;9.63;3.42;;;30.70;43.00;;;;;;5054086;28;20430;-80
2021/08/13 11:50:18;;;;;;;6.65;3.90;;;30.70;43.00;;;;;;5054499;28;20079;-80
2021/08/13 11:52:48;;;;;;;14.73;4.95;;;30.60;43.00;;;;;;5053891;28;20025;-79
2021/08/13 11:55:21;;;;;;;9.90;4.97;;;30.60;43.30;;;;;;5053884;28;20452;-78
2021/08/13 11:57:52;;;;;;;6.28;3.50;;;30.60;43.30;;;;;;5053080;28;20468;-79
2021/08/13 12:00:20;;;;;;;9.07;3.00;;;30.50;43.20;;;;;;5054145;28;20021;-81
2021/08/13 12:02:46;;;;;;;7.30;3.85;;;30.50;43.10;;;;;;5054081;28;20017;-81
2021/08/13 12:05:13;;;;;;;7.50;3.53;;;30.50;43.10;;;;;;5054061;28;20055;-79
2021/08/13 12:07:42;;;;;;;10.00;3.45;;;30.40;43.10;;;;;;5055009;28;20526;-82
2021/08/13 12:10:13;;;;;;;6.75;3.55;;;30.30;43.20;;;;;;5055163;28;20027;-83
2021/08/13 12:12:40;;;;;;;5.63;4.28;;;30.30;43.30;;;;;;5056017;28;20036;-82
2021/08/13 12:15:07;;;;;;;9.15;3.72;;;30.20;43.30;;;;;;5055892;28;20531;-83
2021/08/13 12:17:33;;;;;;;7.68;3.20;;;30.10;43.40;;;;;;5055556;28;20106;-84
2021/08/13 12:20:00;;;;;;;7.55;3.35;;;30.10;43.50;;;;;;5054783;28;20414;-82
2021/08/13 12:22:33;;;;;;;9.95;3.83;;;30.10;43.60;;;;;;5054238;28;20025;-82
2021/08/13 12:24:59;;;;;;;6.30;3.67;;;30.10;43.70;;;;;;5054138;28;20032;-82
2021/08/13 12:27:31;;;;;;;7.28;2.90;;;30.10;43.70;;;;;;5053895;28;20089;-82
2021/08/13 12:29:57;;;;;;;3.60;3.05;;;30.10;43.70;;;;;;5053889;28;20517;-83
2021/08/13 12:32:40;;;;;;;7.53;3.00;;;30.10;43.70;;;;;;5053858;28;20029;-85
2021/08/13 12:35:08;;;;;;;7.65;3.03;;;30.00;43.40;;;;;;5054520;28;20043;-81
2021/08/13 12:37:35;;;;;;;8.85;3.25;;;29.90;43.30;;;;;;5054518;28;20032;-83
2021/08/13 12:40:02;;;;;;;13.75;6.60;;;29.80;43.30;;;;;;5058863;28;20028;-83
2021/08/13 12:42:28;;;;;;;6.68;3.75;;;29.80;43.60;;;;;;5061745;28;20025;-82
2021/08/13 12:44:55;;;;;;;10.70;3.80;;;29.80;43.80;;;;;;5057261;28;20407;-82
2021/08/13 12:47:22;;;;;;;13.52;4.18;;;29.70;43.90;;;;;;5053956;28;20025;-82
2021/08/13 12:49:49;;;;;;;6.00;3.20;;;29.70;44.10;;;;;;5057124;28;20049;-84